createdAt,value
2024-03-02T00:01:04.506Z,100895.66
2024-03-02T00:06:01.221Z,100892.72
2024-03-02T00:10:58.902Z,100883.06
2024-03-02T00:15:56.847Z,100883.38
2024-03-02T00:20:57.222Z,100903.28
2024-03-02T00:25:54.446Z,100892.69
2024-03-02T00:31:04.467Z,100890.94
2024-03-02T00:36:01.767Z,100873.03
2024-03-02T00:40:59.865Z,100862.66
2024-03-02T00:45:56.469Z,100874.88
2024-03-02T00:50:53.787Z,100873.84
2024-03-02T00:55:50.490Z,100843.38
2024-03-02T01:00:47.119Z,100846.91
2024-03-02T01:05:43.844Z,100855.56
2024-03-02T01:10:41.205Z,100847.38
2024-03-02T01:15:37.955Z,100850.09
2024-03-02T01:20:34.570Z,100842.00
2024-03-02T01:25:31.190Z,100832.56
2024-03-02T01:30:28.396Z,100834.09
2024-03-02T01:35:25.561Z,100831.69
2024-03-02T01:40:22.108Z,100824.22
2024-03-02T01:45:19.078Z,100814.50
2024-03-02T01:50:16.382Z,100820.66
2024-03-02T01:55:12.920Z,100818.09
2024-03-02T02:00:10.296Z,100813.34
2024-03-02T02:05:10.285Z,100817.72
2024-03-02T02:10:07.974Z,100815.09
2024-03-02T02:15:04.877Z,100813.53
2024-03-02T02:20:01.454Z,100815.34
2024-03-02T02:24:58.840Z,100815.34
2024-03-02T02:29:56.632Z,100810.75
2024-03-02T02:34:53.297Z,100809.16
2024-03-02T02:39:49.936Z,100813.72
2024-03-02T02:44:47.201Z,100812.34
2024-03-02T02:49:43.885Z,100814.97
2024-03-02T02:54:40.646Z,100814.91
2024-03-02T02:59:37.689Z,100808.75
2024-03-02T03:04:34.979Z,100825.25
2024-03-02T03:09:31.686Z,100826.44
2024-03-02T03:14:28.372Z,100829.38
2024-03-02T03:19:24.923Z,100823.22
2024-03-02T03:24:22.231Z,100822.41
2024-03-02T03:29:18.798Z,100819.56
2024-03-02T03:34:18.147Z,100820.75
2024-03-02T03:39:14.809Z,100817.00
2024-03-02T03:44:11.966Z,100818.72
2024-03-02T03:49:08.862Z,100823.63
2024-03-02T03:54:05.545Z,100829.56
2024-03-02T03:59:02.218Z,100843.25
2024-03-02T04:03:59.451Z,100837.19
2024-03-02T04:08:56.176Z,100841.56
2024-03-02T04:13:54.230Z,100833.56
2024-03-02T04:18:51.381Z,100832.75
2024-03-02T04:23:48.664Z,100826.47
2024-03-02T04:28:47.457Z,100818.22
2024-03-02T04:33:44.084Z,100838.09
2024-03-02T04:38:40.664Z,100852.13
2024-03-02T04:43:37.937Z,100852.50
2024-03-02T04:48:34.991Z,100854.41
2024-03-02T04:53:31.659Z,100862.31
2024-03-02T04:58:28.305Z,100847.66
2024-03-02T05:03:25.497Z,100847.97
2024-03-02T05:08:22.247Z,100866.88
2024-03-02T05:13:18.946Z,100851.13
2024-03-02T05:18:15.535Z,100837.50
2024-03-02T05:23:12.797Z,100867.53
2024-03-02T05:28:09.427Z,100871.97
2024-03-02T05:33:06.114Z,100860.94
2024-03-02T05:38:02.768Z,100880.88
2024-03-02T05:43:00.064Z,100880.22
2024-03-02T05:47:56.745Z,100879.44
2024-03-02T05:52:53.366Z,100886.28
2024-03-02T05:58:02.945Z,100885.44
2024-03-02T06:03:00.220Z,100869.91
2024-03-02T06:07:56.859Z,100868.06
2024-03-02T06:12:53.462Z,100877.72
2024-03-02T06:17:50.040Z,100876.06
2024-03-02T06:22:47.441Z,100869.97
2024-03-02T06:27:44.143Z,100871.94
2024-03-02T06:32:40.827Z,100868.44
2024-03-02T06:37:37.443Z,100857.56
2024-03-02T06:42:35.072Z,100851.25
2024-03-02T06:47:31.862Z,100855.31
2024-03-02T06:52:28.509Z,100885.75
2024-03-02T06:57:25.330Z,100885.13
2024-03-02T07:02:23.426Z,100892.19
2024-03-02T07:07:20.245Z,100908.16
2024-03-02T07:12:16.970Z,100901.13
2024-03-02T07:17:13.682Z,100905.47
2024-03-02T07:22:11.232Z,100915.16
2024-03-02T07:27:07.830Z,100876.72
2024-03-02T07:32:04.744Z,100884.50
2024-03-02T07:37:01.720Z,100863.78
2024-03-02T07:41:59.050Z,100861.78
2024-03-02T07:46:55.663Z,100857.28
2024-03-02T07:51:52.327Z,100866.66
2024-03-02T07:56:48.998Z,100867.44
2024-03-02T08:01:46.389Z,100879.91
2024-03-02T08:06:43.083Z,100867.84
2024-03-02T08:11:39.827Z,100862.41
2024-03-02T08:16:36.539Z,100877.53
2024-03-02T08:21:35.762Z,100869.16
2024-03-02T08:26:32.374Z,100876.13
2024-03-02T08:31:28.938Z,100870.91
2024-03-02T08:36:25.753Z,100877.38
2024-03-02T08:41:23.030Z,100857.63
2024-03-02T08:46:19.594Z,100867.63
2024-03-02T08:51:16.219Z,100860.69
2024-03-02T08:56:13.441Z,100867.78
2024-03-02T09:01:10.850Z,100854.91
2024-03-02T09:06:07.476Z,100850.94
2024-03-02T09:11:04.361Z,100830.44
2024-03-02T09:16:01.172Z,100850.06
2024-03-02T09:20:58.464Z,100844.06
2024-03-02T09:25:55.074Z,100837.72
2024-03-02T09:30:51.756Z,100866.00
2024-03-02T09:35:49.315Z,100859.94
2024-03-02T09:40:46.638Z,100854.50
2024-03-02T09:45:43.897Z,100869.03
2024-03-02T09:50:40.486Z,100863.56
2024-03-02T09:55:37.137Z,100861.88
2024-03-02T10:00:34.625Z,100849.31
2024-03-02T10:05:31.326Z,100866.47
2024-03-02T10:10:35.059Z,100848.88
2024-03-02T10:15:31.902Z,100849.50
2024-03-02T10:20:29.904Z,100858.38
2024-03-02T10:25:40.563Z,100864.47
2024-03-02T10:30:44.319Z,100860.16
2024-03-02T10:35:41.923Z,100862.56
2024-03-02T10:40:38.478Z,100848.66
2024-03-02T10:45:35.252Z,100842.78
2024-03-02T10:50:32.362Z,100848.44
2024-03-02T10:55:29.978Z,100835.81
2024-03-02T11:00:30.682Z,100831.16
2024-03-02T11:05:28.789Z,100838.78
2024-03-02T11:10:26.245Z,100833.31
2024-03-02T11:15:27.679Z,100833.78
2024-03-02T11:20:25.194Z,100835.38
2024-03-02T11:25:25.704Z,100817.63
2024-03-02T11:30:38.170Z,100814.41
2024-03-02T11:35:35.904Z,100819.91
2024-03-02T11:40:32.729Z,100823.47
2024-03-02T11:45:32.038Z,100813.97
2024-03-02T11:50:29.908Z,100803.84
2024-03-02T11:55:27.357Z,100805.22
2024-03-02T12:00:24.125Z,100794.09
2024-03-02T12:05:21.885Z,100798.00
2024-03-02T12:10:20.124Z,100795.97
2024-03-02T12:15:17.595Z,100790.56
2024-03-02T12:20:14.231Z,100783.59
2024-03-02T12:25:10.863Z,100789.69
2024-03-02T12:30:11.165Z,100793.91
2024-03-02T12:35:13.883Z,100791.13
2024-03-02T12:40:12.020Z,100791.84
2024-03-02T12:45:10.197Z,100782.47
2024-03-02T12:50:07.431Z,100791.13
2024-03-02T12:55:05.789Z,100782.16
2024-03-02T13:00:09.266Z,100781.81
2024-03-02T13:05:07.154Z,100786.84
2024-03-02T13:10:04.996Z,100786.56
2024-03-02T13:15:02.804Z,100785.88
2024-03-02T13:20:00.023Z,100793.31
2024-03-02T13:24:56.704Z,100798.97
2024-03-02T13:29:55.189Z,100785.47
2024-03-02T13:34:52.178Z,100794.28
2024-03-02T13:39:49.278Z,100802.09
2024-03-02T13:44:47.854Z,100796.53
2024-03-02T13:49:47.147Z,100791.25
2024-03-02T13:54:44.872Z,100795.34
2024-03-02T13:59:41.993Z,100787.28
2024-03-02T14:04:39.241Z,100791.59
2024-03-02T14:09:36.950Z,100811.56
2024-03-02T14:14:34.006Z,100806.88
2024-03-02T14:19:31.278Z,100809.63
2024-03-02T14:24:29.863Z,100800.13
2024-03-02T14:29:27.428Z,100800.31
2024-03-02T14:34:24.426Z,100812.66
2024-03-02T14:39:21.229Z,100811.19
2024-03-02T14:44:18.306Z,100805.63
2024-03-02T14:49:15.788Z,100805.56
2024-03-02T14:54:12.538Z,100811.56
2024-03-02T14:59:09.400Z,100807.44
2024-03-02T15:04:06.190Z,100815.63
2024-03-02T15:09:04.035Z,100818.19
2024-03-02T15:14:00.667Z,100817.03
2024-03-02T15:18:57.552Z,100822.66
2024-03-02T15:23:54.221Z,100827.66
2024-03-02T15:28:52.060Z,100835.72
2024-03-02T15:33:48.724Z,100835.31
2024-03-02T15:38:45.569Z,100837.97
2024-03-02T15:43:43.289Z,100838.53
2024-03-02T15:48:40.958Z,100849.81
2024-03-02T15:53:37.600Z,100852.56
2024-03-02T15:58:36.485Z,100853.97
2024-03-02T16:03:33.379Z,100859.88
2024-03-02T16:08:33.119Z,100867.13
2024-03-02T16:13:30.678Z,100865.59
2024-03-02T16:18:27.257Z,100873.88
2024-03-02T16:23:24.076Z,100870.97
2024-03-02T16:28:21.740Z,100887.34
2024-03-02T16:33:19.048Z,100888.91
2024-03-02T16:38:15.728Z,100899.22
2024-03-02T16:43:12.545Z,100894.88
2024-03-02T16:48:09.922Z,100895.25
2024-03-02T16:53:06.775Z,100898.88
2024-03-02T16:58:03.552Z,100908.28
2024-03-02T17:03:00.292Z,100911.59
2024-03-02T17:07:58.702Z,100912.69
2024-03-02T17:12:56.076Z,100911.00
2024-03-02T17:17:52.942Z,100920.78
2024-03-02T17:22:49.505Z,100917.38
2024-03-02T17:27:46.846Z,100926.84
2024-03-02T17:32:45.282Z,100938.75
2024-03-02T17:37:41.871Z,100937.16
2024-03-02T17:42:38.633Z,100931.84
2024-03-02T17:47:36.061Z,100938.00
2024-03-02T17:52:32.750Z,100947.38
2024-03-02T17:57:29.635Z,100947.94
2024-03-02T18:02:27.722Z,100950.81
2024-03-02T18:07:25.061Z,100943.25
2024-03-02T18:12:21.642Z,100948.06
2024-03-02T18:17:19.088Z,100949.38
2024-03-02T18:22:15.764Z,100953.75
2024-03-02T18:27:13.149Z,100956.69
2024-03-02T18:32:09.721Z,100964.66
2024-03-02T18:37:06.367Z,100969.41
2024-03-02T18:42:03.393Z,100963.66
2024-03-02T18:47:00.629Z,100964.72
2024-03-02T18:51:57.370Z,100970.28
2024-03-02T18:56:54.299Z,100967.22
2024-03-02T19:01:51.373Z,100977.88
2024-03-02T19:06:49.032Z,100973.75
2024-03-02T19:11:45.717Z,100971.41
2024-03-02T19:16:44.530Z,100980.72
2024-03-02T19:21:41.117Z,100952.00
2024-03-02T19:26:38.389Z,100972.63
2024-03-02T19:31:35.012Z,100978.28
2024-03-02T19:36:31.634Z,100977.81
2024-03-02T19:41:28.380Z,100976.81
2024-03-02T19:46:25.632Z,100981.84
2024-03-02T19:51:22.287Z,100969.66
2024-03-02T19:56:39.215Z,100981.47
2024-03-02T20:01:36.885Z,100982.97
2024-03-02T20:06:33.655Z,100988.03
2024-03-02T20:11:31.635Z,100986.81
2024-03-02T20:16:28.374Z,100989.88
2024-03-02T20:21:25.969Z,101001.63
2024-03-02T20:26:22.783Z,100993.94
2024-03-02T20:31:20.016Z,101006.31
2024-03-02T20:36:16.823Z,101000.84
2024-03-02T20:41:17.713Z,100997.59
2024-03-02T20:46:15.097Z,100999.19
2024-03-02T20:51:11.790Z,101001.22
2024-03-02T20:56:08.458Z,100999.44
2024-03-02T21:01:06.491Z,100991.56
2024-03-02T21:06:05.416Z,100994.28
2024-03-02T21:11:02.878Z,101000.41
2024-03-02T21:15:59.499Z,100993.56
2024-03-02T21:20:56.812Z,100995.00
2024-03-02T21:25:53.450Z,100992.50
2024-03-02T21:30:50.183Z,100996.56
2024-03-02T21:35:46.768Z,100992.75
2024-03-02T21:40:44.348Z,100988.84
2024-03-02T21:45:40.924Z,100997.72
2024-03-02T21:50:37.667Z,100992.50
2024-03-02T21:55:34.224Z,100994.66
2024-03-02T22:00:31.596Z,101002.03
2024-03-02T22:05:29.215Z,100994.69
2024-03-02T22:10:25.910Z,101008.09
2024-03-02T22:15:22.547Z,101002.16
2024-03-02T22:20:22.363Z,101020.16
2024-03-02T22:25:19.128Z,101018.44
2024-03-02T22:30:15.854Z,101012.03
2024-03-02T22:35:12.462Z,101013.56
2024-03-02T22:40:11.382Z,101014.22
2024-03-02T22:45:08.428Z,101026.41
2024-03-02T22:50:06.234Z,101032.13
2024-03-02T22:55:02.894Z,101027.88
2024-03-02T23:00:00.206Z,101032.94
2024-03-02T23:04:56.764Z,101032.91
2024-03-02T23:09:53.428Z,101026.31
2024-03-02T23:14:50.235Z,101030.03
2024-03-02T23:19:47.527Z,101036.28
2024-03-02T23:24:44.160Z,101032.97
2024-03-02T23:29:40.872Z,101034.03
2024-03-02T23:34:38.527Z,101032.50
2024-03-02T23:40:09.011Z,101025.31
2024-03-02T23:45:06.056Z,101030.56
2024-03-02T23:50:03.450Z,101037.38
2024-03-02T23:55:00.975Z,101043.22
2024-03-02T23:59:58.764Z,101042.44
